Mount Sidney, Virginia
Current Conditions -  °F | °C
As of 5:55 PM on Friday 28 Nov 2014 (Local Time) from KSHD Reporting Station
Broken Clouds Broken Clouds  
Wind Chill: 31°   Ceiling: 12000
Heat Index: 31°   Visibility: 10mi
Dew Point: 20°   Wind: 0mph
Humidity: 65%   Direction: NA
Pressure: 30.25"   Gusts: NA
Location:  38.26°N, 78.96°W
Report Text: KSHD 282255Z AUTO 00000KT 10SM BKN120 M01/M07 A3025 RMK AO2 T10081067
Loading
Personal Weather Stations






























Interactive Weather Map New forecast layout! Learn more

10-Day Weather Forecast

Advertisements
Track Severe Weather on mobile